createdAt,value
2019-02-22T00:00:27.654Z,21.90
2019-02-22T00:02:56.222Z,21.73
2019-02-22T00:05:24.815Z,22.23
2019-02-22T00:07:53.370Z,24.17
2019-02-22T00:10:21.961Z,23.23
2019-02-22T00:12:50.518Z,23.13
2019-02-22T00:15:19.181Z,22.20
2019-02-22T00:17:47.736Z,23.23
2019-02-22T00:20:16.328Z,21.73
2019-02-22T00:22:44.882Z,22.13
2019-02-22T00:25:13.442Z,21.97
2019-02-22T00:27:41.942Z,24.20
2019-02-22T00:30:10.640Z,23.43
2019-02-22T00:32:39.227Z,24.60
2019-02-22T00:35:07.960Z,24.33
2019-02-22T00:37:36.510Z,24.50
2019-02-22T00:42:52.193Z,24.23
2019-02-22T00:45:20.733Z,22.33
2019-02-22T00:47:49.310Z,24.97
2019-02-22T00:50:17.792Z,23.33
2019-02-22T00:52:46.370Z,24.23
2019-02-22T00:55:14.871Z,23.83
2019-02-22T00:57:43.450Z,23.77
2019-02-22T01:00:12.146Z,23.33
2019-02-22T01:02:40.730Z,21.97
2019-02-22T01:05:09.354Z,21.10
2019-02-22T01:07:37.938Z,20.47
2019-02-22T01:10:06.772Z,20.40
2019-02-22T01:12:35.347Z,22.00
2019-02-22T01:15:04.518Z,22.17
2019-02-22T01:17:33.142Z,22.83
2019-02-22T01:20:01.674Z,23.33
2019-02-22T01:22:30.246Z,22.23
2019-02-22T01:24:58.811Z,24.50
2019-02-22T01:27:27.372Z,22.70
2019-02-22T01:29:55.947Z,22.57
2019-02-22T01:32:24.498Z,23.03
2019-02-22T01:34:53.083Z,22.10
2019-02-22T01:37:21.634Z,22.27
2019-02-22T01:39:50.209Z,21.80
2019-02-22T01:42:18.686Z,23.30
2019-02-22T01:44:47.263Z,24.17
2019-02-22T01:47:15.830Z,23.87
2019-02-22T01:49:44.406Z,24.27
2019-02-22T01:52:12.954Z,24.90
2019-02-22T01:54:44.218Z,21.17
2019-02-22T01:57:12.776Z,21.33
2019-02-22T01:59:41.361Z,20.20
2019-02-22T02:02:09.914Z,21.50
2019-02-22T02:04:38.514Z,23.63
2019-02-22T02:07:07.148Z,24.07
2019-02-22T02:09:35.918Z,23.60
2019-02-22T02:12:04.470Z,23.53
2019-02-22T02:14:33.123Z,24.37
2019-02-22T02:17:01.677Z,20.97
2019-02-22T02:19:30.257Z,21.67
2019-02-22T02:21:58.878Z,18.80
2019-02-22T02:24:27.461Z,20.43
2019-02-22T02:26:56.034Z,19.90
2019-02-22T02:29:24.631Z,19.03
2019-02-22T02:31:53.178Z,19.87
2019-02-22T02:34:21.762Z,21.00
2019-02-22T02:36:50.242Z,21.07
2019-02-22T02:39:18.834Z,21.17
2019-02-22T02:41:47.392Z,22.23
2019-02-22T02:44:15.978Z,22.13
2019-02-22T02:46:44.534Z,23.23
2019-02-22T02:49:13.087Z,19.43
2019-02-22T02:51:41.682Z,23.43
2019-02-22T02:54:10.239Z,22.00
2019-02-22T02:56:38.897Z,19.77
2019-02-22T02:59:07.459Z,21.23
2019-02-22T03:01:36.039Z,20.60
2019-02-22T03:04:04.585Z,20.90
2019-02-22T03:06:34.803Z,21.10
2019-02-22T03:09:03.815Z,20.07
2019-02-22T03:11:32.395Z,20.53
2019-02-22T03:14:00.951Z,20.53
2019-02-22T03:16:29.530Z,20.67
2019-02-22T03:18:58.096Z,21.73
2019-02-22T03:21:26.679Z,22.20
2019-02-22T03:23:55.239Z,25.40
2019-02-22T03:26:23.816Z,25.87
2019-02-22T03:28:52.386Z,24.37
2019-02-22T03:31:20.960Z,22.13
2019-02-22T03:33:49.525Z,24.43
2019-02-22T03:36:18.099Z,25.30
2019-02-22T03:38:46.664Z,20.57
2019-02-22T03:41:15.252Z,18.37
2019-02-22T03:43:43.820Z,21.57
2019-02-22T03:46:12.422Z,20.80
2019-02-22T03:48:41.304Z,20.57
2019-02-22T03:51:09.877Z,21.70
2019-02-22T03:53:40.070Z,21.60
2019-02-22T03:56:08.675Z,23.97
2019-02-22T03:58:37.273Z,21.40
2019-02-22T04:01:06.716Z,19.97
2019-02-22T04:03:35.268Z,22.03
2019-02-22T04:06:03.930Z,21.93
2019-02-22T04:08:32.478Z,20.57
2019-02-22T04:11:01.032Z,19.03
2019-02-22T04:13:29.606Z,19.60
2019-02-22T04:15:58.170Z,19.97
2019-02-22T04:18:26.763Z,20.17
2019-02-22T04:20:55.302Z,21.40
2019-02-22T04:23:23.882Z,23.17
2019-02-22T04:25:52.442Z,21.33
2019-02-22T04:28:22.733Z,23.27
2019-02-22T04:30:51.362Z,22.87
2019-02-22T04:33:19.963Z,23.47
2019-02-22T04:35:48.517Z,23.80
2019-02-22T04:38:17.095Z,26.17
2019-02-22T04:40:45.666Z,25.40
2019-02-22T04:43:14.254Z,23.33
2019-02-22T04:45:43.788Z,21.00
2019-02-22T04:48:12.366Z,19.87
2019-02-22T04:50:40.984Z,20.77
2019-02-22T04:53:09.533Z,22.43
2019-02-22T04:55:38.080Z,21.47
2019-02-22T04:58:06.661Z,25.43
2019-02-22T05:00:35.215Z,24.37
2019-02-22T05:03:03.870Z,21.40
2019-02-22T05:05:32.422Z,22.70
2019-02-22T05:08:01.001Z,24.47
2019-02-22T05:10:29.560Z,24.27
2019-02-22T05:12:58.140Z,23.90
2019-02-22T05:15:26.736Z,24.37
2019-02-22T05:17:55.318Z,23.57
2019-02-22T05:20:23.796Z,24.17
2019-02-22T05:23:03.311Z,22.17
2019-02-22T05:25:22.575Z,24.63
2019-02-22T05:27:51.155Z,24.57
2019-02-22T05:30:19.727Z,27.63
2019-02-22T05:32:48.314Z,26.77
2019-02-22T05:35:16.864Z,23.77
2019-02-22T05:37:45.448Z,22.77
2019-02-22T05:40:14.014Z,26.57
2019-02-22T05:42:42.587Z,23.47
2019-02-22T05:45:11.146Z,23.27
2019-02-22T05:47:39.697Z,23.23
2019-02-22T05:50:08.524Z,23.53
2019-02-22T05:52:37.138Z,23.53
2019-02-22T05:55:06.266Z,25.27
2019-02-22T05:57:34.820Z,25.63
2019-02-22T06:00:03.847Z,26.87
2019-02-22T06:02:33.964Z,29.87
2019-02-22T06:05:02.782Z,30.63
2019-02-22T06:07:31.336Z,28.57
2019-02-22T06:09:59.979Z,25.10
2019-02-22T06:12:34.577Z,22.27
2019-02-22T06:14:58.769Z,23.47
2019-02-22T06:17:27.335Z,21.57
2019-02-22T06:19:55.891Z,21.60
2019-02-22T06:22:29.678Z,24.33
2019-02-22T06:24:54.669Z,25.73
2019-02-22T06:27:23.147Z,25.10
2019-02-22T06:29:51.725Z,25.80
2019-02-22T06:32:20.283Z,24.87
2019-02-22T06:34:48.857Z,20.87
2019-02-22T06:37:17.406Z,22.37
2019-02-22T06:39:45.988Z,22.93
2019-02-22T06:42:14.535Z,24.07
2019-02-22T06:44:43.111Z,23.90
2019-02-22T06:47:11.662Z,26.53
2019-02-22T06:49:40.250Z,24.07
2019-02-22T06:52:08.814Z,25.27
2019-02-22T06:54:37.394Z,26.10
2019-02-22T06:57:05.954Z,32.13
2019-02-22T06:59:34.539Z,32.33
2019-02-22T07:02:03.091Z,25.23
2019-02-22T07:04:31.670Z,23.03
2019-02-22T07:07:00.230Z,24.87
2019-02-22T07:09:28.810Z,26.20
2019-02-22T07:12:07.663Z,24.40
2019-02-22T07:14:36.242Z,23.57
2019-02-22T07:17:04.793Z,28.07
2019-02-22T07:19:33.377Z,24.10
2019-02-22T07:22:01.925Z,21.50
2019-02-22T07:24:30.482Z,20.17
2019-02-22T07:26:59.067Z,21.13
2019-02-22T07:29:27.619Z,21.73
2019-02-22T07:32:05.484Z,22.60
2019-02-22T07:34:26.404Z,23.33
2019-02-22T07:36:54.970Z,23.63
2019-02-22T07:39:27.761Z,23.27
2019-02-22T07:41:53.674Z,22.07
2019-02-22T07:44:22.230Z,20.77
2019-02-22T07:46:50.822Z,21.73
2019-02-22T07:49:22.196Z,23.73
2019-02-22T07:51:50.779Z,22.17
2019-02-22T07:54:19.344Z,23.53
2019-02-22T07:56:47.929Z,26.60
2019-02-22T07:59:16.510Z,28.33
2019-02-22T08:01:47.885Z,30.93
2019-02-22T08:04:15.311Z,31.37
2019-02-22T08:06:43.887Z,30.20
2019-02-22T08:09:12.469Z,26.50
2019-02-22T08:11:41.049Z,22.83
2019-02-22T08:14:09.534Z,28.33
2019-02-22T08:16:39.352Z,40.23
2019-02-22T08:19:07.911Z,25.17
2019-02-22T08:21:36.488Z,23.23
2019-02-22T08:24:05.040Z,26.10
2019-02-22T08:26:33.613Z,34.33
2019-02-22T08:29:02.091Z,35.03
2019-02-22T08:31:30.670Z,32.67
2019-02-22T08:33:59.242Z,30.53
2019-02-22T08:36:27.840Z,33.33
2019-02-22T08:38:56.399Z,32.23
2019-02-22T08:41:24.980Z,32.37
2019-02-22T08:43:53.530Z,33.40
2019-02-22T08:46:22.108Z,32.23
2019-02-22T08:48:50.666Z,33.03
2019-02-22T08:51:19.308Z,35.30
2019-02-22T08:53:47.827Z,35.70
2019-02-22T08:56:16.420Z,33.87
2019-02-22T08:58:45.038Z,39.73
2019-02-22T09:01:13.615Z,39.83
2019-02-22T09:03:50.243Z,36.47
2019-02-22T09:06:12.363Z,38.53
2019-02-22T09:08:40.949Z,36.60
2019-02-22T09:11:09.502Z,36.97
2019-02-22T09:13:43.483Z,37.50
2019-02-22T09:16:08.275Z,35.60
2019-02-22T09:18:36.854Z,37.67
2019-02-22T09:21:05.410Z,34.77
2019-02-22T09:23:33.994Z,32.73
2019-02-22T09:26:02.551Z,29.43
2019-02-22T09:28:31.130Z,23.20
2019-02-22T09:30:59.685Z,19.37
2019-02-22T09:33:28.197Z,17.17
2019-02-22T09:35:56.759Z,15.57
2019-02-22T09:38:25.342Z,14.80
2019-02-22T09:40:53.905Z,14.47
2019-02-22T09:43:22.429Z,12.60
2019-02-22T09:45:50.977Z,13.60
2019-02-22T09:48:19.570Z,12.40
2019-02-22T09:50:48.282Z,11.70
2019-02-22T09:53:16.851Z,12.10
2019-02-22T09:55:45.412Z,10.97
2019-02-22T09:58:13.994Z,10.37
2019-02-22T10:00:42.551Z,10.93
2019-02-22T10:03:11.158Z,11.07
2019-02-22T10:05:39.702Z,10.30
2019-02-22T10:08:08.290Z,10.57
2019-02-22T10:10:36.845Z,10.80
2019-02-22T10:13:05.443Z,11.20
2019-02-22T10:15:34.008Z,10.63
2019-02-22T10:18:02.587Z,11.30
2019-02-22T10:20:31.142Z,9.70
2019-02-22T10:22:59.734Z,11.60
2019-02-22T10:25:28.294Z,10.67
2019-02-22T10:27:56.850Z,10.67
2019-02-22T10:30:25.363Z,10.20
2019-02-22T10:32:53.947Z,10.20
2019-02-22T10:35:22.529Z,11.00
2019-02-22T10:37:51.090Z,10.17
2019-02-22T10:40:19.677Z,10.17
2019-02-22T10:42:48.243Z,10.23
2019-02-22T10:45:16.829Z,8.27
2019-02-22T10:47:45.386Z,8.43
2019-02-22T10:50:14.026Z,8.20
2019-02-22T10:52:42.577Z,8.77
2019-02-22T10:55:13.103Z,8.70
2019-02-22T10:57:41.658Z,9.37
2019-02-22T11:00:16.007Z,8.40
2019-02-22T11:02:44.558Z,8.73
2019-02-22T11:05:13.147Z,9.53
2019-02-22T11:07:41.706Z,6.63
2019-02-22T11:10:12.024Z,6.97
2019-02-22T11:12:40.585Z,6.20
2019-02-22T11:15:11.602Z,7.63
2019-02-22T11:17:40.177Z,8.00
2019-02-22T11:20:10.281Z,7.37
2019-02-22T11:22:38.755Z,7.23
2019-02-22T11:25:12.873Z,7.20
2019-02-22T11:27:41.358Z,6.97
2019-02-22T11:30:14.142Z,6.40
2019-02-22T11:32:42.689Z,6.03
2019-02-22T11:35:11.328Z,5.20
2019-02-22T11:37:39.893Z,5.53
2019-02-22T11:40:10.093Z,5.97
2019-02-22T11:42:38.713Z,4.17
2019-02-22T11:45:08.418Z,4.10
2019-02-22T11:47:36.885Z,4.00
2019-02-22T11:50:08.395Z,3.30
2019-02-22T11:52:36.863Z,4.30
2019-02-22T11:55:09.114Z,4.17
2019-02-22T11:57:40.080Z,4.87
2019-02-22T12:00:16.022Z,4.53
2019-02-22T12:02:45.741Z,4.30
2019-02-22T12:05:15.697Z,4.03
2019-02-22T12:07:44.177Z,5.00
2019-02-22T12:10:13.578Z,5.13
2019-02-22T12:12:42.185Z,5.20
2019-02-22T12:15:12.196Z,4.97
2019-02-22T12:17:40.807Z,6.07
2019-02-22T12:20:10.333Z,5.30
2019-02-22T12:22:38.876Z,5.40
2019-02-22T12:25:13.593Z,6.33
2019-02-22T12:27:42.131Z,6.00
2019-02-22T12:30:15.164Z,6.00
2019-02-22T12:32:43.774Z,5.97
2019-02-22T12:35:12.432Z,6.13
2019-02-22T12:37:41.041Z,5.67
2019-02-22T12:40:10.924Z,4.90
2019-02-22T12:42:39.561Z,4.70
2019-02-22T12:45:10.049Z,4.90
2019-02-22T12:47:38.625Z,5.03
2019-02-22T12:50:09.409Z,5.87
2019-02-22T12:52:37.913Z,4.97
2019-02-22T12:55:09.521Z,5.83
2019-02-22T12:57:38.009Z,5.67
2019-02-22T13:00:09.558Z,5.37
2019-02-22T13:02:38.234Z,5.13
2019-02-22T13:05:09.375Z,5.07
2019-02-22T13:07:38.236Z,4.20
2019-02-22T13:10:07.714Z,4.60
2019-02-22T13:12:36.291Z,4.33
2019-02-22T13:15:14.121Z,4.43
2019-02-22T13:17:38.060Z,4.17
2019-02-22T13:20:08.341Z,3.90
2019-02-22T13:22:36.924Z,2.90
2019-02-22T13:25:10.591Z,3.47
2019-02-22T13:27:39.159Z,3.00
2019-02-22T13:30:10.715Z,2.73
2019-02-22T13:32:39.281Z,3.20
2019-02-22T13:35:10.723Z,2.67
2019-02-22T13:37:38.126Z,2.40
2019-02-22T13:40:14.943Z,2.40
2019-02-22T13:42:43.602Z,2.13
2019-02-22T13:45:13.128Z,2.63
2019-02-22T13:47:41.797Z,2.20
2019-02-22T13:50:13.077Z,2.03
2019-02-22T13:52:41.637Z,2.23
2019-02-22T13:55:10.358Z,2.17
2019-02-22T13:57:39.006Z,1.80
2019-02-22T14:00:11.431Z,1.93
2019-02-22T14:02:40.000Z,2.33
2019-02-22T14:05:08.552Z,1.93
2019-02-22T14:07:37.118Z,2.43
2019-02-22T14:10:06.202Z,2.10
2019-02-22T14:12:34.699Z,2.33
2019-02-22T14:15:03.318Z,1.80
2019-02-22T14:17:31.894Z,1.97
2019-02-22T14:20:00.440Z,2.20
2019-02-22T14:22:29.017Z,2.10
2019-02-22T14:24:57.611Z,2.50
2019-02-22T14:27:26.146Z,2.27
2019-02-22T14:29:54.762Z,2.20
2019-02-22T14:32:23.306Z,1.50
2019-02-22T14:34:51.881Z,1.77
2019-02-22T14:37:20.605Z,1.87
2019-02-22T14:40:00.106Z,1.57
2019-02-22T14:42:19.363Z,1.70
2019-02-22T14:44:47.867Z,1.20
2019-02-22T14:47:16.405Z,1.70
2019-02-22T14:49:44.989Z,1.10
2019-02-22T14:52:13.539Z,1.33
2019-02-22T14:54:42.106Z,1.43
2019-02-22T14:57:10.577Z,1.50
2019-02-22T14:59:39.158Z,1.87
2019-02-22T15:02:07.701Z,2.00
2019-02-22T15:04:36.433Z,1.80
2019-02-22T15:07:05.026Z,2.03
2019-02-22T15:09:33.596Z,1.93
2019-02-22T15:12:02.087Z,2.00
2019-02-22T15:14:30.661Z,1.87
2019-02-22T15:17:03.756Z,1.77
2019-02-22T15:19:32.334Z,2.10
2019-02-22T15:22:01.245Z,1.73
2019-02-22T15:24:29.842Z,1.50
2019-02-22T15:26:58.413Z,1.80
2019-02-22T15:29:26.980Z,2.00
2019-02-22T15:31:55.529Z,2.13
2019-02-22T15:34:24.106Z,1.70
2019-02-22T15:36:52.661Z,2.17
2019-02-22T15:39:21.243Z,2.00
2019-02-22T15:41:49.801Z,1.80
2019-02-22T15:44:18.388Z,2.33
2019-02-22T15:46:47.072Z,2.00
2019-02-22T15:49:15.726Z,2.43
2019-02-22T15:51:44.257Z,2.67
2019-02-22T15:54:12.811Z,2.27
2019-02-22T15:56:41.378Z,2.67
2019-02-22T15:59:09.922Z,3.00
2019-02-22T16:01:38.506Z,2.80
2019-02-22T16:04:14.638Z,3.67
2019-02-22T16:06:43.211Z,3.57
2019-02-22T16:09:11.829Z,3.67
2019-02-22T16:11:40.330Z,3.07
2019-02-22T16:14:08.881Z,3.30
2019-02-22T16:16:37.466Z,2.67
2019-02-22T16:19:06.080Z,2.70
2019-02-22T16:21:34.657Z,3.17
2019-02-22T16:24:03.131Z,3.00
2019-02-22T16:26:31.947Z,3.47
2019-02-22T16:29:00.491Z,3.27
2019-02-22T16:31:29.078Z,3.40
2019-02-22T16:33:59.461Z,3.93
2019-02-22T16:36:32.166Z,4.27
2019-02-22T16:39:03.984Z,3.50
2019-02-22T16:41:33.687Z,3.50
2019-02-22T16:44:04.538Z,4.00
2019-02-22T16:46:35.181Z,4.00
2019-02-22T16:49:03.853Z,4.13
2019-02-22T16:51:34.106Z,4.53
2019-02-22T16:54:05.533Z,5.07
2019-02-22T16:56:34.043Z,4.90
2019-02-22T16:59:02.674Z,4.57
2019-02-22T17:01:31.245Z,4.50
2019-02-22T17:03:59.857Z,5.17
2019-02-22T17:06:28.656Z,4.83
2019-02-22T17:08:57.440Z,4.80
2019-02-22T17:11:26.026Z,4.87
2019-02-22T17:13:54.650Z,5.43
2019-02-22T17:16:23.229Z,5.30
2019-02-22T17:18:51.776Z,4.70
2019-02-22T17:21:20.342Z,5.97
2019-02-22T17:23:48.828Z,5.13
2019-02-22T17:26:17.397Z,4.60
2019-02-22T17:28:45.981Z,4.33
2019-02-22T17:31:14.534Z,5.17
2019-02-22T17:33:43.124Z,5.70
2019-02-22T17:36:11.831Z,5.93
2019-02-22T17:38:40.406Z,5.10
2019-02-22T17:41:08.950Z,5.73
2019-02-22T17:43:37.526Z,5.13
2019-02-22T17:46:06.088Z,5.70
2019-02-22T17:48:34.745Z,5.20
2019-02-22T17:51:03.292Z,5.40
2019-02-22T17:53:31.877Z,4.77
2019-02-22T17:56:00.421Z,4.93
2019-02-22T17:58:28.999Z,5.43
2019-02-22T18:00:57.623Z,6.30
2019-02-22T18:03:26.201Z,6.13
2019-02-22T18:05:54.738Z,5.50
2019-02-22T18:08:23.324Z,6.67
2019-02-22T18:10:51.880Z,5.90
2019-02-22T18:13:20.462Z,6.27
2019-02-22T18:15:49.014Z,5.93
2019-02-22T18:18:17.594Z,4.93
2019-02-22T18:20:46.149Z,5.57
2019-02-22T18:23:14.740Z,5.20
2019-02-22T18:25:43.288Z,5.07
2019-02-22T18:28:11.863Z,4.83
2019-02-22T18:30:40.423Z,4.17
2019-02-22T18:33:08.990Z,4.40
2019-02-22T18:35:37.563Z,4.20
2019-02-22T18:38:06.398Z,3.87
2019-02-22T18:40:34.939Z,3.27
2019-02-22T18:43:03.523Z,3.57
2019-02-22T18:45:32.084Z,3.70
2019-02-22T18:48:00.662Z,4.17
2019-02-22T18:50:29.220Z,4.23
2019-02-22T18:52:57.802Z,4.30
2019-02-22T18:55:26.350Z,4.13
2019-02-22T18:57:54.953Z,4.73
2019-02-22T19:00:23.507Z,5.33
2019-02-22T19:02:52.043Z,6.87
2019-02-22T19:05:20.622Z,6.80
2019-02-22T19:07:49.173Z,10.00
2019-02-22T19:10:18.800Z,9.30
2019-02-22T19:12:47.352Z,6.50
2019-02-22T19:15:15.930Z,6.00
2019-02-22T19:17:44.483Z,5.50
2019-02-22T19:20:17.915Z,4.40
2019-02-22T19:22:46.476Z,4.30
2019-02-22T19:25:15.054Z,4.60
2019-02-22T19:27:43.603Z,4.43
2019-02-22T19:30:16.994Z,4.73
2019-02-22T19:32:45.547Z,5.43
2019-02-22T19:35:14.187Z,5.13
2019-02-22T19:37:42.799Z,5.40
2019-02-22T19:40:13.511Z,5.23
2019-02-22T19:42:42.057Z,6.20
2019-02-22T19:45:11.467Z,6.80
2019-02-22T19:47:42.246Z,8.20
2019-02-22T19:50:12.163Z,6.53
2019-02-22T19:52:40.844Z,5.67
2019-02-22T19:55:12.126Z,5.77
2019-02-22T19:57:40.687Z,6.23
2019-02-22T20:00:18.994Z,6.20
2019-02-22T20:02:47.610Z,7.03
2019-02-22T20:05:16.363Z,7.27
2019-02-22T20:07:44.973Z,6.83
2019-02-22T20:10:21.451Z,7.43
2019-02-22T20:12:50.087Z,8.17
2019-02-22T20:15:18.835Z,7.93
2019-02-22T20:17:53.721Z,6.70
2019-02-22T20:20:18.709Z,8.27
2019-02-22T20:22:47.338Z,8.33
2019-02-22T20:25:15.959Z,7.33
2019-02-22T20:27:44.524Z,7.13
2019-02-22T20:30:17.922Z,8.07
2019-02-22T20:32:46.499Z,8.67
2019-02-22T20:35:23.766Z,8.87
2019-02-22T20:37:53.453Z,8.27
2019-02-22T20:40:22.426Z,8.77
2019-02-22T20:42:51.077Z,8.53
2019-02-22T20:45:19.621Z,8.17
2019-02-22T20:47:48.213Z,9.70
2019-02-22T20:50:16.768Z,9.77
2019-02-22T20:52:45.349Z,9.00
2019-02-22T20:55:14.182Z,8.70
2019-02-22T20:57:42.758Z,9.30
2019-02-22T21:00:19.961Z,7.90
2019-02-22T21:02:48.613Z,8.57
2019-02-22T21:05:17.175Z,10.37
2019-02-22T21:07:45.752Z,12.43
2019-02-22T21:10:19.046Z,9.20
2019-02-22T21:12:47.703Z,8.10
2019-02-22T21:15:16.329Z,8.23
2019-02-22T21:17:44.971Z,7.50
2019-02-22T21:20:19.072Z,8.40
2019-02-22T21:22:47.719Z,8.83
2019-02-22T21:25:16.351Z,8.27
2019-02-22T21:27:44.930Z,8.57
2019-02-22T21:30:17.703Z,7.77
2019-02-22T21:32:46.254Z,8.40
2019-02-22T21:35:14.820Z,8.23
2019-02-22T21:37:44.131Z,8.10
2019-02-22T21:40:13.311Z,8.80
2019-02-22T21:42:41.886Z,8.30
2019-02-22T21:45:16.778Z,8.23
2019-02-22T21:47:54.171Z,7.93
2019-02-22T21:50:17.251Z,7.57
2019-02-22T21:52:45.831Z,7.60
2019-02-22T21:55:15.323Z,7.93
2019-02-22T21:57:44.013Z,8.13
2019-02-22T22:00:23.437Z,7.63
2019-02-22T22:02:51.968Z,8.50
2019-02-22T22:05:20.557Z,8.57
2019-02-22T22:07:49.103Z,8.57
2019-02-22T22:10:17.757Z,8.87
2019-02-22T22:12:46.308Z,8.77
2019-02-22T22:15:16.411Z,9.63
2019-02-22T22:17:44.962Z,8.57
2019-02-22T22:20:13.682Z,8.97
2019-02-22T22:22:42.234Z,9.37
2019-02-22T22:25:14.848Z,9.30
2019-02-22T22:27:43.464Z,10.73
2019-02-22T22:30:15.947Z,7.97
2019-02-22T22:32:44.514Z,8.47
2019-02-22T22:35:14.480Z,9.20
2019-02-22T22:37:43.059Z,8.93
2019-02-22T22:40:11.799Z,9.33
2019-02-22T22:42:40.768Z,9.03
2019-02-22T22:45:16.896Z,8.37
2019-02-22T22:47:45.478Z,9.50
2019-02-22T22:50:15.891Z,9.27
2019-02-22T22:52:44.477Z,11.67
2019-02-22T22:55:13.207Z,13.17
2019-02-22T22:57:42.987Z,13.03
2019-02-22T23:00:35.790Z,12.57
2019-02-22T23:03:04.761Z,11.40
2019-02-22T23:05:33.769Z,8.83
2019-02-22T23:08:02.378Z,8.80
2019-02-22T23:10:31.187Z,8.20
2019-02-22T23:12:59.812Z,8.73
2019-02-22T23:15:28.446Z,8.10
2019-02-22T23:17:57.116Z,9.57
2019-02-22T23:20:25.838Z,9.67
2019-02-22T23:22:54.556Z,11.17
2019-02-22T23:25:23.180Z,10.90
2019-02-22T23:27:51.786Z,11.10
2019-02-22T23:30:20.578Z,12.70
2019-02-22T23:32:49.166Z,13.10
2019-02-22T23:35:17.845Z,14.30
2019-02-22T23:37:46.442Z,14.53
2019-02-22T23:40:15.057Z,14.03
2019-02-22T23:42:43.653Z,15.33
2019-02-22T23:45:12.418Z,15.80
2019-02-22T23:47:40.993Z,17.00
2019-02-22T23:50:09.621Z,15.37
2019-02-22T23:52:38.262Z,14.50
2019-02-22T23:55:07.012Z,14.20
2019-02-22T23:57:35.602Z,14.00
